Bremen — C6JC3 — position and weather

sailwx.info

Track history (hours):
 
Tides and Currents Weather Stations Pressure Air Temp Water Temp Dewpoint Dewpoint Depression Visibility Wind Speed Wind Dir Waves Ship Positions

Bremen

Operator: Hapag-Lloyd Container Line

Last reported at 2014-Jul-31 23:31 UTC. Time now 2014-Jul-31 23:45 UTC.
Position N 67°18' W 054°22'.

Length 111.5 m; beam 17 m; draft 4.8 m.

Type: Ship. MMSI: 308429000.

Date/timePositionNaut miles runAvg speedWind from/ knotsBaromVisibWave heightAir tempDewpointWater temp
2014-Jul-31 23:31N 67°18' W 054°22'1313.7
2014-Jul-31 22:33N 67°05' W 054°21'1313.4
2014-Jul-31 21:33N 66°52' W 054°17'1313.1
2014-Jul-31 20:33N 66°39' W 054°19'1413.6
2014-Jul-31 19:33N 66°26' W 054°06'1614.0
2014-Jul-31 18:26N 66°11' W 054°00'67 6.6
2014-Jul-31 08:20N 65°11' W 052°49'912.2
2014-Jul-31 07:33N 65°02' W 052°46'1312.6
2014-Jul-31 06:33N 64°49' W 052°41'1312.8
2014-Jul-31 05:33N 64°36' W 052°37'1414.3
2014-Jul-31 04:33N 64°22' W 052°31'1515.5
2014-Jul-31 03:33N 64°07' W 052°25'1514.8
2014-Jul-31 02:34N 63°54' W 052°10'  
2014-Jul-25 20:33N 64°16' W 022°33'1212.0
2014-Jul-25 19:33N 64°13' W 022°07'6 5.7
2014-Jul-25 18:32N 64°09' W 021°56'0 0.0
2014-Jul-25 17:32N 64°09' W 021°56'0 0.0
2014-Jul-25 16:32N 64°09' W 021°56'0 0.0
2014-Jul-25 15:32N 64°09' W 021°56'0 0.0
2014-Jul-25 14:31N 64°09' W 021°56'0 0.0
2014-Jul-25 13:31N 64°09' W 021°56'0 0.0
2014-Jul-25 12:31N 64°09' W 021°56'0 0.0
2014-Jul-25 11:33N 64°09' W 021°56'0 0.0
2014-Jul-25 10:33N 64°09' W 021°56'0 0.0
2014-Jul-25 09:32N 64°09' W 021°56'0 0.0
2014-Jul-25 08:32N 64°09' W 021°56'0 0.0
2014-Jul-25 07:33N 64°09' W 021°56'7 7.2
2014-Jul-25 06:33N 64°14' W 022°09'1212.0
2014-Jul-25 05:32N 64°19' W 022°34'50412.0
2014-Jul-23 11:32N 70°50' W 008°40'5 5.2
2014-Jul-23 10:33N 70°55' W 008°42'0 0.0
2014-Jul-23 09:33N 70°55' W 008°42'0 0.0
2014-Jul-23 08:33N 70°55' W 008°42'0 0.0
2014-Jul-23 07:33N 70°55' W 008°42'  
Track history (hours):
 
Tides and Currents Weather Stations Pressure Air Temp Water Temp Dewpoint Dewpoint Depression Visibility Wind Speed Wind Dir Waves Ship Positions

Bremen

Operator: Hapag-Lloyd Container Line

Last reported at 2014-Jul-31 23:31 UTC. Time now 2014-Jul-31 23:45 UTC.
Position N 67°18' W 054°22'.

Length 111.5 m; beam 17 m; draft 4.8 m.

Type: Ship. MMSI: 308429000.

Date/timePositionNaut miles runAvg speedWind from/ knotsBaromVisibWave heightAir tempDewpointWater temp
2014-Jul-31 23:31N 67°18' W 054°22'1313.7
2014-Jul-31 22:33N 67°05' W 054°21'1313.4
2014-Jul-31 21:33N 66°52' W 054°17'1313.1
2014-Jul-31 20:33N 66°39' W 054°19'1413.6
2014-Jul-31 19:33N 66°26' W 054°06'1614.0
2014-Jul-31 18:26N 66°11' W 054°00'67 6.6
2014-Jul-31 08:20N 65°11' W 052°49'912.2
2014-Jul-31 07:33N 65°02' W 052°46'1312.6
2014-Jul-31 06:33N 64°49' W 052°41'1312.8
2014-Jul-31 05:33N 64°36' W 052°37'1414.3
2014-Jul-31 04:33N 64°22' W 052°31'1515.5
2014-Jul-31 03:33N 64°07' W 052°25'1514.8
2014-Jul-31 02:34N 63°54' W 052°10'  
2014-Jul-25 20:33N 64°16' W 022°33'1212.0
2014-Jul-25 19:33N 64°13' W 022°07'6 5.7
2014-Jul-25 18:32N 64°09' W 021°56'0 0.0
2014-Jul-25 17:32N 64°09' W 021°56'0 0.0
2014-Jul-25 16:32N 64°09' W 021°56'0 0.0
2014-Jul-25 15:32N 64°09' W 021°56'0 0.0
2014-Jul-25 14:31N 64°09' W 021°56'0 0.0
2014-Jul-25 13:31N 64°09' W 021°56'0 0.0
2014-Jul-25 12:31N 64°09' W 021°56'0 0.0
2014-Jul-25 11:33N 64°09' W 021°56'0 0.0
2014-Jul-25 10:33N 64°09' W 021°56'0 0.0
2014-Jul-25 09:32N 64°09' W 021°56'0 0.0
2014-Jul-25 08:32N 64°09' W 021°56'0 0.0
2014-Jul-25 07:33N 64°09' W 021°56'7 7.2
2014-Jul-25 06:33N 64°14' W 022°09'1212.0
2014-Jul-25 05:32N 64°19' W 022°34'50412.0
2014-Jul-23 11:32N 70°50' W 008°40'5 5.2
2014-Jul-23 10:33N 70°55' W 008°42'0 0.0
2014-Jul-23 09:33N 70°55' W 008°42'0 0.0
2014-Jul-23 08:33N 70°55' W 008°42'0 0.0
2014-Jul-23 07:33N 70°55' W 008°42'  

Dump ship's entire track history